メインページ
METAR-TAF:

METAR-TAF

空港 :

カルガリー, アルバータ州, カナダ

カルガリー国際空港

緯度: 51-07N, 経度: 114-01W, 海抜: 1077m

現時点の気象観測

当レポートは43分前の19:00(UTC)に作成
西/南西の風 6kt、から西/北西の間で変化する
気温 10°C
湿度 23%
気圧 1007 hPa
視程: 64.4km
高度7400ftの雲はほとんどない
高度23000ftの千切れ雲あり

METAR: CYYC 251900Z 24006KT 170V290 40SM FEW074 BKN230 10/M10 A2975 RMK CU2CI3 SLP099 DENSITY ALT 4000FT

時間: 13:43 (19:43 UTC)

予報

当レポートは1時間54分前の17:49(UTC)に作成
予報は25日の 18時(UTC)から 26日の 18時(UTC)まで有効
南/南西の風 8kt
視程: 10km
高度6000ftの雲はほとんどない
高度15000ftの雲は散在している
25日の 18時(UTC)から 25日の 20時(UTC)まで徐々に
西の風 10kt
25日の 2000時(UTC)から
西の風 10kt
視程: 10km
高度8000ftの雲は散在している
高度12000ftの雲は散在している
25日の 20時(UTC)から 25日の 24時(UTC)まで一時的に
視程: 10km
高度8000ftの千切れ雲あり
近辺でにわか雨
25日の 22時(UTC)から 25日の 24時(UTC)まで徐々に
西の風 15kt
26日の 0400時(UTC)から
西の風 10kt
視程: 10km
晴天
26日の 1100時(UTC)から
北/北西の風 8kt
視程: 10km
高度22000ftの雲は散在している
26日の 13時(UTC)から 26日の 15時(UTC)まで徐々に
の風 8kt
晴天

TAF: CYYC 251749Z 2518/2618 20008KT P6SM FEW060 SCT150 BECMG 2518/2520 27010KT FM252000 27010KT P6SM SCT080 SCT120 TEMPO 2520/2524 P6SM VCSH BKN080 BECMG 2522/2524 28015KT FM260400 27010KT P6SM SKC FM261100 34008KT P6SM SCT220 BECMG 2613/2615 18008KT SKC RMK NXT FCST BY 252100Z

4,000以上の空港の気象観測と天気予報(METAR報とTAF報)

利用可能な観測所は地図上に黄色い丸と赤い丸で示す。

丸の上にカーソルを重ねると観測所名を参照できる。

次にクリックすると気象観測と天気予報を参照できる。

マップの切り替え:黒色「×」印の緑ボタンをクリックして拡大、「-」印の緑ボタンをクリックして縮小、緑色の三角印をクリックして隣りの地図に切り替え


METAR-TAF: